createdAt,value
2023-05-08T00:01:04.880Z,4.97
2023-05-08T00:03:31.278Z,4.70
2023-05-08T00:05:57.599Z,5.00
2023-05-08T00:08:24.136Z,5.53
2023-05-08T00:10:50.432Z,5.10
2023-05-08T00:13:16.797Z,5.00
2023-05-08T00:15:43.127Z,5.20
2023-05-08T00:18:09.488Z,4.83
2023-05-08T00:20:35.758Z,4.83
2023-05-08T00:23:01.987Z,4.93
2023-05-08T00:25:28.253Z,4.57
2023-05-08T00:27:54.618Z,5.10
2023-05-08T00:30:21.255Z,4.73
2023-05-08T00:32:47.705Z,5.00
2023-05-08T00:35:14.035Z,5.50
2023-05-08T00:37:43.739Z,5.00
2023-05-08T00:40:10.808Z,4.63
2023-05-08T00:42:37.391Z,5.30
2023-05-08T00:45:03.860Z,5.10
2023-05-08T00:47:31.513Z,5.13
2023-05-08T00:49:58.802Z,5.43
2023-05-08T00:52:26.122Z,4.67
2023-05-08T00:54:52.401Z,5.07
2023-05-08T00:57:18.677Z,5.03
2023-05-08T00:59:47.038Z,4.83
2023-05-08T01:02:13.770Z,5.10
2023-05-08T01:04:40.667Z,5.10
2023-05-08T01:07:06.983Z,5.37
2023-05-08T01:09:33.271Z,4.90
2023-05-08T01:12:20.606Z,5.40
2023-05-08T01:14:58.914Z,5.33
2023-05-08T01:17:33.311Z,5.40
2023-05-08T01:20:02.890Z,5.77
2023-05-08T01:22:47.749Z,5.53
2023-05-08T01:25:29.497Z,5.50
2023-05-08T01:28:13.826Z,5.43
2023-05-08T01:31:00.363Z,5.70
2023-05-08T01:33:33.604Z,5.27
2023-05-08T01:36:06.015Z,5.60
2023-05-08T01:38:33.793Z,5.47
2023-05-08T01:41:04.668Z,5.57
2023-05-08T01:43:44.694Z,5.53
2023-05-08T01:46:13.891Z,5.17
2023-05-08T01:48:44.745Z,5.63
2023-05-08T01:51:19.214Z,6.10
2023-05-08T01:53:48.727Z,5.53
2023-05-08T01:56:17.164Z,6.13
2023-05-08T01:58:43.909Z,5.47
2023-05-08T02:01:12.556Z,5.87
2023-05-08T02:03:39.735Z,6.37
2023-05-08T02:06:06.575Z,6.50
2023-05-08T02:08:33.389Z,6.17
2023-05-08T02:11:00.623Z,6.23
2023-05-08T02:13:27.832Z,6.57
2023-05-08T02:15:55.223Z,6.70
2023-05-08T02:18:23.684Z,6.40
2023-05-08T02:20:50.990Z,6.97
2023-05-08T02:23:22.208Z,6.43
2023-05-08T02:25:49.187Z,6.37
2023-05-08T02:28:16.441Z,6.20
2023-05-08T02:30:42.984Z,6.20
2023-05-08T02:33:10.638Z,6.60
2023-05-08T02:35:38.030Z,6.13
2023-05-08T02:38:10.593Z,6.87
2023-05-08T02:40:38.824Z,6.10
2023-05-08T02:43:05.287Z,6.80
2023-05-08T02:45:48.483Z,6.97
2023-05-08T02:48:32.513Z,6.67
2023-05-08T02:51:02.932Z,6.73
2023-05-08T02:53:33.046Z,6.90
2023-05-08T02:56:05.349Z,6.40
2023-05-08T02:58:35.391Z,6.53
2023-05-08T03:01:06.739Z,7.33
2023-05-08T03:03:37.985Z,6.60
2023-05-08T03:06:08.273Z,6.93
2023-05-08T03:08:35.119Z,6.97
2023-05-08T03:11:03.888Z,7.00
2023-05-08T03:13:32.188Z,7.07
2023-05-08T03:16:02.858Z,7.03
2023-05-08T03:18:32.128Z,6.80
2023-05-08T03:20:59.330Z,7.40
2023-05-08T03:23:26.391Z,6.80
2023-05-08T03:25:52.786Z,6.90
2023-05-08T03:28:19.815Z,7.17
2023-05-08T03:30:46.532Z,7.00
2023-05-08T03:33:13.087Z,7.40
2023-05-08T03:35:39.635Z,6.73
2023-05-08T03:38:06.868Z,7.00
2023-05-08T03:40:36.711Z,7.30
2023-05-08T03:43:03.761Z,7.23
2023-05-08T03:45:31.333Z,6.90
2023-05-08T03:47:58.317Z,7.77
2023-05-08T03:50:24.791Z,7.03
2023-05-08T03:52:51.338Z,7.10
2023-05-08T03:55:17.762Z,6.90
2023-05-08T03:58:13.198Z,7.40
2023-05-08T04:00:53.783Z,7.50
2023-05-08T04:03:23.084Z,7.77
2023-05-08T04:05:59.513Z,7.27
2023-05-08T04:08:30.268Z,6.80
2023-05-08T04:11:15.448Z,7.40
2023-05-08T04:13:45.918Z,6.90
2023-05-08T04:16:15.286Z,7.70
2023-05-08T04:18:44.090Z,7.17
2023-05-08T04:21:11.399Z,7.10
2023-05-08T04:23:39.588Z,7.23
2023-05-08T04:26:06.776Z,7.13
2023-05-08T04:28:33.703Z,7.53
2023-05-08T04:31:00.486Z,7.13
2023-05-08T04:33:28.283Z,7.50
2023-05-08T04:35:54.721Z,7.23
2023-05-08T04:38:20.969Z,6.53
2023-05-08T04:40:47.272Z,7.57
2023-05-08T04:43:13.529Z,7.50
2023-05-08T04:45:39.781Z,7.50
2023-05-08T04:48:06.193Z,7.30
2023-05-08T04:50:32.560Z,7.40
2023-05-08T04:52:58.914Z,7.00
2023-05-08T04:55:25.142Z,6.57
2023-05-08T04:57:51.386Z,7.10
2023-05-08T05:00:17.857Z,6.43
2023-05-08T05:02:44.143Z,6.63
2023-05-08T05:05:11.492Z,6.70
2023-05-08T05:07:38.017Z,6.57
2023-05-08T05:10:04.539Z,6.30
2023-05-08T05:12:30.830Z,6.30
2023-05-08T05:14:57.093Z,6.43
2023-05-08T05:17:23.401Z,5.93
2023-05-08T05:19:59.701Z,6.23
2023-05-08T05:22:26.070Z,5.73
2023-05-08T05:24:52.318Z,6.30
2023-05-08T05:27:21.188Z,6.10
2023-05-08T05:29:47.655Z,5.80
2023-05-08T05:32:13.968Z,5.80
2023-05-08T05:34:40.235Z,5.70
2023-05-08T05:37:06.917Z,5.40
2023-05-08T05:39:33.145Z,5.60
2023-05-08T05:41:59.551Z,5.73
2023-05-08T05:44:25.821Z,5.33
2023-05-08T05:46:52.177Z,5.43
2023-05-08T05:49:18.566Z,4.70
2023-05-08T05:51:44.908Z,5.10
2023-05-08T05:54:11.140Z,5.23
2023-05-08T05:56:37.484Z,4.70
2023-05-08T05:59:03.893Z,4.40
2023-05-08T06:01:30.140Z,4.73
2023-05-08T06:03:56.506Z,4.47
2023-05-08T06:06:23.016Z,4.63
2023-05-08T06:08:49.286Z,4.53
2023-05-08T06:11:15.569Z,4.20
2023-05-08T06:13:42.040Z,4.67
2023-05-08T06:16:08.307Z,4.10
2023-05-08T06:18:34.686Z,4.57
2023-05-08T06:21:04.111Z,4.10
2023-05-08T06:23:30.370Z,4.10
2023-05-08T06:25:56.660Z,4.17
2023-05-08T06:28:24.457Z,4.00
2023-05-08T06:30:50.846Z,3.80
2023-05-08T06:33:17.196Z,3.60
2023-05-08T06:35:47.551Z,3.43
2023-05-08T06:38:14.359Z,3.43
2023-05-08T06:40:46.655Z,3.27
2023-05-08T06:43:13.242Z,2.97
2023-05-08T06:45:40.046Z,3.20
2023-05-08T06:48:06.780Z,3.00
2023-05-08T06:50:33.215Z,3.00
2023-05-08T06:52:59.504Z,2.90
2023-05-08T06:55:26.505Z,3.20
2023-05-08T06:57:52.780Z,2.43
2023-05-08T07:00:19.302Z,2.78
2023-05-08T07:02:45.658Z,2.33
2023-05-08T07:05:12.472Z,2.30
2023-05-08T07:07:38.906Z,2.58
2023-05-08T07:10:07.161Z,2.38
2023-05-08T07:12:34.162Z,2.25
2023-05-08T07:15:05.577Z,1.77
2023-05-08T07:17:37.830Z,1.88
2023-05-08T07:20:04.583Z,1.90
2023-05-08T07:22:30.891Z,1.77
2023-05-08T07:24:57.217Z,1.85
2023-05-08T07:27:23.535Z,1.73
2023-05-08T07:29:49.799Z,2.10
2023-05-08T07:32:16.268Z,2.10
2023-05-08T07:34:43.195Z,1.77
2023-05-08T07:37:10.095Z,2.10
2023-05-08T07:39:36.386Z,2.05
2023-05-08T07:42:02.687Z,2.10
2023-05-08T07:44:37.279Z,1.73
2023-05-08T07:47:10.064Z,2.20
2023-05-08T07:49:37.013Z,2.22
2023-05-08T07:52:03.467Z,2.00
2023-05-08T07:54:29.688Z,2.25
2023-05-08T07:56:56.010Z,2.40
2023-05-08T07:59:22.360Z,2.10
2023-05-08T08:01:48.656Z,2.30
2023-05-08T08:04:15.605Z,2.30
2023-05-08T08:06:41.981Z,2.67
2023-05-08T08:09:08.283Z,2.63
2023-05-08T08:11:34.612Z,2.60
2023-05-08T08:14:01.273Z,2.50
2023-05-08T08:16:27.604Z,2.80
2023-05-08T08:18:53.926Z,2.57
2023-05-08T08:21:20.303Z,2.87
2023-05-08T08:23:46.718Z,2.57
2023-05-08T08:26:13.005Z,2.50
2023-05-08T08:28:39.319Z,2.60
2023-05-08T08:31:05.672Z,2.07
2023-05-08T08:33:31.999Z,2.70
2023-05-08T08:35:58.243Z,2.10
2023-05-08T08:38:24.493Z,2.20
2023-05-08T08:40:50.841Z,2.40
2023-05-08T08:43:17.167Z,2.50
2023-05-08T08:45:43.455Z,2.40
2023-05-08T08:48:11.523Z,2.50
2023-05-08T08:50:41.408Z,2.13
2023-05-08T08:53:10.258Z,2.07
2023-05-08T08:55:39.889Z,2.50
2023-05-08T08:58:12.160Z,2.40
2023-05-08T09:00:38.950Z,2.07
2023-05-08T09:03:06.446Z,2.27
2023-05-08T09:05:33.027Z,2.27
2023-05-08T09:07:59.488Z,2.40
2023-05-08T09:10:25.948Z,2.30
2023-05-08T09:12:52.556Z,2.40
2023-05-08T09:15:18.948Z,3.13
2023-05-08T09:17:45.512Z,2.80
2023-05-08T09:20:14.159Z,2.57
2023-05-08T09:22:40.829Z,2.10
2023-05-08T09:25:07.346Z,2.73
2023-05-08T09:27:34.619Z,2.70
2023-05-08T09:30:02.331Z,2.73
2023-05-08T09:32:29.395Z,1.80
2023-05-08T09:34:55.776Z,2.30
2023-05-08T09:37:22.010Z,2.10
2023-05-08T09:39:48.514Z,2.87
2023-05-08T09:42:14.816Z,2.33
2023-05-08T09:44:43.915Z,2.47
2023-05-08T09:47:11.205Z,2.47
2023-05-08T09:49:39.717Z,3.17
2023-05-08T09:52:06.675Z,2.40
2023-05-08T09:54:33.014Z,2.33
2023-05-08T09:56:59.342Z,2.30
2023-05-08T09:59:30.783Z,2.47
2023-05-08T10:01:58.196Z,2.20
2023-05-08T10:04:34.418Z,2.30
2023-05-08T10:07:01.003Z,2.37
2023-05-08T10:09:35.642Z,1.80
2023-05-08T10:12:09.220Z,2.03
2023-05-08T10:14:36.110Z,1.93
2023-05-08T10:17:06.734Z,2.00
2023-05-08T10:19:33.213Z,2.17
2023-05-08T10:22:00.717Z,1.93
2023-05-08T10:24:31.944Z,2.10
2023-05-08T10:27:10.602Z,2.53
2023-05-08T10:29:42.186Z,1.90
2023-05-08T10:32:09.831Z,1.87
2023-05-08T10:34:39.528Z,2.10
2023-05-08T10:37:07.819Z,1.80
2023-05-08T10:39:34.961Z,2.00
2023-05-08T10:42:01.509Z,1.90
2023-05-08T10:44:28.557Z,1.93
2023-05-08T10:46:58.186Z,1.93
2023-05-08T10:49:43.499Z,2.03
2023-05-08T10:52:13.999Z,2.07
2023-05-08T10:54:48.199Z,1.97
2023-05-08T10:57:15.519Z,1.70
2023-05-08T10:59:45.057Z,2.13
2023-05-08T11:02:11.437Z,2.00
2023-05-08T11:04:38.385Z,2.03
2023-05-08T11:07:05.297Z,1.93
2023-05-08T11:09:43.628Z,2.23
2023-05-08T11:12:30.521Z,2.40
2023-05-08T11:15:01.466Z,2.10
2023-05-08T11:17:28.840Z,2.40
2023-05-08T11:19:56.733Z,1.87
2023-05-08T11:22:24.733Z,1.90
2023-05-08T11:24:58.613Z,2.10
2023-05-08T11:27:38.724Z,2.33
2023-05-08T11:30:20.527Z,2.10
2023-05-08T11:32:59.946Z,1.90
2023-05-08T11:35:42.523Z,2.07
2023-05-08T11:38:14.496Z,2.30
2023-05-08T11:40:47.254Z,1.90
2023-05-08T11:43:29.460Z,2.00
2023-05-08T11:45:59.672Z,2.30
2023-05-08T11:48:26.012Z,2.50
2023-05-08T11:50:52.806Z,2.00
2023-05-08T11:53:19.723Z,2.17
2023-05-08T11:55:49.839Z,1.90
2023-05-08T11:58:16.439Z,2.07
2023-05-08T12:00:46.359Z,2.30
2023-05-08T12:03:13.621Z,2.17
2023-05-08T12:05:40.645Z,1.80
2023-05-08T12:08:07.302Z,1.97
2023-05-08T12:10:39.059Z,2.10
2023-05-08T12:13:15.490Z,2.50
2023-05-08T12:15:41.746Z,1.80
2023-05-08T12:18:08.059Z,2.30
2023-05-08T12:20:34.415Z,1.97
2023-05-08T12:23:02.298Z,2.13
2023-05-08T12:25:28.615Z,2.43
2023-05-08T13:02:17.574Z,1.70
2023-05-08T13:04:44.882Z,2.10
2023-05-08T13:07:11.584Z,1.90
2023-05-08T13:09:38.354Z,2.00
2023-05-08T13:12:05.693Z,2.00
2023-05-08T13:14:32.084Z,2.10
2023-05-08T13:16:58.481Z,2.10
2023-05-08T13:19:25.046Z,1.93
2023-05-08T13:21:52.870Z,2.07
2023-05-08T13:24:19.141Z,1.83
2023-05-08T13:26:46.064Z,1.80
2023-05-08T13:29:13.154Z,1.87
2023-05-08T13:31:39.454Z,1.93
2023-05-08T13:34:05.806Z,2.20
2023-05-08T13:36:32.104Z,1.80
2023-05-08T13:38:58.381Z,2.10
2023-05-08T13:41:24.743Z,2.23
2023-05-08T13:43:51.139Z,2.20
2023-05-08T13:46:17.526Z,2.13
2023-05-08T13:48:43.800Z,2.10
2023-05-08T13:51:10.071Z,1.83
2023-05-08T13:53:36.358Z,1.67
2023-05-08T13:56:02.690Z,2.00
2023-05-08T13:58:28.932Z,1.90
2023-05-08T14:00:55.217Z,1.80
2023-05-08T14:03:21.640Z,1.90
2023-05-08T14:05:47.959Z,1.80
2023-05-08T14:08:14.259Z,2.00
2023-05-08T14:10:40.830Z,1.90
2023-05-08T14:13:07.137Z,2.20
2023-05-08T14:15:37.398Z,2.27
2023-05-08T14:18:04.169Z,2.00
2023-05-08T14:20:30.581Z,2.13
2023-05-08T14:22:59.828Z,2.30
2023-05-08T14:25:35.633Z,2.00
2023-05-08T14:28:01.881Z,1.80
2023-05-08T14:30:28.194Z,2.07
2023-05-08T14:32:54.491Z,2.00
2023-05-08T14:35:20.920Z,1.90
2023-05-08T14:37:47.169Z,2.20
2023-05-08T14:40:13.462Z,2.10
2023-05-08T14:42:39.788Z,2.10
2023-05-08T14:45:06.370Z,2.30
2023-05-08T14:47:33.075Z,2.00
2023-05-08T14:49:59.424Z,1.87
2023-05-08T14:52:25.691Z,1.90
2023-05-08T14:54:53.571Z,2.13
2023-05-08T14:57:20.623Z,1.93
2023-05-08T14:59:54.865Z,2.17
2023-05-08T15:02:22.149Z,2.10
2023-05-08T15:04:48.490Z,2.03
2023-05-08T15:07:14.790Z,2.00
2023-05-08T15:09:41.182Z,2.07
2023-05-08T15:12:07.423Z,1.80
2023-05-08T15:14:33.666Z,2.03
2023-05-08T15:16:59.906Z,2.07
2023-05-08T15:19:26.292Z,2.33
2023-05-08T15:21:52.627Z,1.70
2023-05-08T15:24:18.909Z,2.27
2023-05-08T15:26:45.231Z,2.20
2023-05-08T15:29:11.509Z,1.90
2023-05-08T15:31:37.791Z,2.13
2023-05-08T15:34:04.138Z,2.30
2023-05-08T15:36:32.391Z,2.10
2023-05-08T15:38:58.771Z,2.00
2023-05-08T15:41:25.006Z,2.00
2023-05-08T15:43:51.256Z,2.37
2023-05-08T15:46:18.471Z,2.30
2023-05-08T15:48:45.071Z,2.20
2023-05-08T15:51:11.695Z,2.60
2023-05-08T15:53:38.208Z,2.33
2023-05-08T15:56:05.606Z,2.40
2023-05-08T15:58:31.916Z,2.20
2023-05-08T16:00:58.314Z,2.63
2023-05-08T16:03:24.812Z,2.40
2023-05-08T16:05:51.178Z,2.37
2023-05-08T16:08:17.464Z,2.53
2023-05-08T16:10:43.735Z,2.60
2023-05-08T16:13:10.175Z,2.37
2023-05-08T16:15:36.525Z,2.23
2023-05-08T16:18:03.021Z,2.50
2023-05-08T16:20:29.416Z,2.20
2023-05-08T16:22:55.933Z,2.40
2023-05-08T16:25:22.662Z,2.67
2023-05-08T16:27:49.314Z,2.70
2023-05-08T16:30:15.974Z,2.27
2023-05-08T16:32:42.740Z,2.20
2023-05-08T16:35:09.238Z,2.17
2023-05-08T16:37:36.201Z,2.40
2023-05-08T16:40:03.861Z,2.27
2023-05-08T16:42:30.267Z,2.23
2023-05-08T16:44:56.527Z,2.70
2023-05-08T16:47:22.818Z,2.50
2023-05-08T16:49:49.179Z,2.30
2023-05-08T16:52:15.458Z,2.57
2023-05-08T16:54:41.754Z,2.40
2023-05-08T16:57:07.994Z,2.13
2023-05-08T16:59:34.272Z,2.87
2023-05-08T17:02:00.602Z,2.50
2023-05-08T17:04:28.743Z,2.70
2023-05-08T17:06:55.900Z,2.80
2023-05-08T17:09:22.211Z,2.40
2023-05-08T17:11:48.521Z,2.73
2023-05-08T17:14:14.810Z,2.47
2023-05-08T17:16:41.255Z,2.97
2023-05-08T17:19:08.382Z,2.37
2023-05-08T17:21:34.719Z,2.80
2023-05-08T17:24:04.283Z,2.80
2023-05-08T17:26:33.591Z,2.33
2023-05-08T17:28:59.885Z,2.53
2023-05-08T17:31:26.174Z,2.33
2023-05-08T17:33:52.431Z,1.90
2023-05-08T17:36:18.797Z,2.00
2023-05-08T17:38:46.306Z,2.10
2023-05-08T17:41:13.030Z,2.50
2023-05-08T17:43:39.790Z,2.80
2023-05-08T17:46:06.923Z,2.60
2023-05-08T17:48:34.077Z,2.17
2023-05-08T17:51:02.554Z,2.17
2023-05-08T17:53:30.364Z,2.10
2023-05-08T17:55:56.793Z,2.40
2023-05-08T17:58:23.060Z,2.27
2023-05-08T18:00:49.330Z,2.17
2023-05-08T18:03:15.777Z,2.33
2023-05-08T18:05:42.117Z,2.37
2023-05-08T18:08:08.662Z,2.17
2023-05-08T18:10:35.696Z,2.03
2023-05-08T18:13:02.044Z,2.23
2023-05-08T18:15:28.308Z,2.30
2023-05-08T18:17:54.703Z,2.07
2023-05-08T18:20:21.083Z,2.23
2023-05-08T18:22:47.569Z,2.10
2023-05-08T18:25:13.935Z,2.40
2023-05-08T18:27:40.377Z,2.37
2023-05-08T18:30:06.987Z,2.23
2023-05-08T18:32:33.331Z,2.20
2023-05-08T18:34:59.681Z,2.30
2023-05-08T18:37:25.933Z,2.20
2023-05-08T18:39:52.458Z,2.40
2023-05-08T18:42:18.726Z,2.20
2023-05-08T18:44:45.057Z,2.40
2023-05-08T18:47:11.324Z,2.30
2023-05-08T18:49:37.647Z,2.20
2023-05-08T18:52:03.939Z,2.57
2023-05-08T18:54:30.513Z,2.50
2023-05-08T18:56:56.826Z,2.67
2023-05-08T18:59:23.147Z,2.77
2023-05-08T19:01:50.180Z,2.50
2023-05-08T19:04:16.611Z,2.90
2023-05-08T19:06:42.857Z,2.47
2023-05-08T19:09:09.208Z,2.80
2023-05-08T19:11:35.596Z,2.70
2023-05-08T19:14:01.832Z,3.10
2023-05-08T19:16:28.096Z,2.80
2023-05-08T19:18:54.374Z,2.43
2023-05-08T19:21:20.593Z,2.83
2023-05-08T19:23:46.913Z,2.93
2023-05-08T19:26:13.165Z,3.07
2023-05-08T19:28:39.439Z,2.80
2023-05-08T19:31:05.712Z,2.77
2023-05-08T19:33:31.950Z,2.80
2023-05-08T19:35:58.179Z,2.43
2023-05-08T19:38:24.529Z,2.63
2023-05-08T19:40:57.251Z,2.70
2023-05-08T19:43:24.466Z,2.93
2023-05-08T19:45:50.763Z,2.90
2023-05-08T19:48:19.537Z,2.77
2023-05-08T19:50:46.265Z,3.10
2023-05-08T19:53:12.587Z,2.93
2023-05-08T19:55:38.976Z,2.97
2023-05-08T19:58:05.199Z,3.00
2023-05-08T20:00:31.493Z,3.17
2023-05-08T20:02:57.799Z,2.87
2023-05-08T20:05:24.228Z,2.90
2023-05-08T20:07:50.564Z,3.23
2023-05-08T20:10:16.911Z,3.00
2023-05-08T20:12:43.365Z,2.90
2023-05-08T20:15:09.932Z,3.30
2023-05-08T20:17:36.283Z,3.20
2023-05-08T20:20:02.621Z,3.17
2023-05-08T20:22:28.887Z,3.20
2023-05-08T20:24:55.216Z,3.43
2023-05-08T20:27:21.450Z,3.50
2023-05-08T20:29:47.698Z,3.20
2023-05-08T20:32:16.313Z,3.50
2023-05-08T20:34:44.148Z,3.50
2023-05-08T20:37:10.578Z,3.37
2023-05-08T20:39:36.932Z,3.63
2023-05-08T20:42:03.237Z,3.30
2023-05-08T20:44:29.537Z,3.70
2023-05-08T20:46:55.809Z,3.63
2023-05-08T20:49:22.118Z,3.30
2023-05-08T20:51:48.514Z,3.40
2023-05-08T20:54:15.292Z,3.90
2023-05-08T20:56:41.562Z,3.60
2023-05-08T20:59:08.251Z,3.40
2023-05-08T21:01:34.589Z,3.23
2023-05-08T21:04:00.891Z,3.53
2023-05-08T21:06:27.145Z,3.87
2023-05-08T21:08:53.457Z,3.63
2023-05-08T21:11:19.699Z,3.43
2023-05-08T21:13:45.934Z,3.13
2023-05-08T21:16:12.217Z,3.43
2023-05-08T21:18:38.523Z,3.60
2023-05-08T21:21:13.444Z,3.53
2023-05-08T21:23:39.708Z,2.93
2023-05-08T21:26:05.955Z,3.60
2023-05-08T21:28:32.255Z,3.60
2023-05-08T21:30:58.504Z,3.17
2023-05-08T21:33:24.774Z,3.33
2023-05-08T21:35:50.984Z,3.30
2023-05-08T21:38:17.236Z,3.60
2023-05-08T21:40:43.528Z,3.40
2023-05-08T21:43:09.858Z,3.63
2023-05-08T21:45:36.321Z,3.27
2023-05-08T21:48:03.005Z,3.57
2023-05-08T21:50:29.352Z,3.43
2023-05-08T21:52:56.682Z,3.83
2023-05-08T21:55:23.256Z,3.77
2023-05-08T21:57:49.476Z,3.60
2023-05-08T22:00:16.551Z,3.97
2023-05-08T22:02:42.879Z,3.57
2023-05-08T22:05:09.344Z,3.47
2023-05-08T22:07:35.637Z,3.37
2023-05-08T22:10:01.910Z,3.73
2023-05-08T22:12:28.189Z,3.57
2023-05-08T22:14:54.476Z,3.53
2023-05-08T22:17:20.718Z,3.40
2023-05-08T22:19:46.945Z,3.60
2023-05-08T22:22:13.423Z,3.80
2023-05-08T22:24:39.784Z,3.40
2023-05-08T22:27:06.344Z,3.77
2023-05-08T22:29:32.645Z,3.33
2023-05-08T22:31:58.912Z,4.00
2023-05-08T22:34:25.276Z,3.87
2023-05-08T22:36:51.542Z,3.60
2023-05-08T22:39:17.856Z,4.13
2023-05-08T22:41:44.245Z,4.10
2023-05-08T22:44:10.763Z,3.67
2023-05-08T22:46:37.531Z,4.17
2023-05-08T22:49:04.258Z,3.60
2023-05-08T22:51:32.558Z,4.03
2023-05-08T22:54:01.999Z,4.23
2023-05-08T22:56:29.081Z,3.80
2023-05-08T22:58:55.602Z,3.53
2023-05-08T23:01:22.198Z,4.10
2023-05-08T23:03:50.906Z,3.73
2023-05-08T23:06:17.153Z,4.17
2023-05-08T23:08:43.413Z,4.20
2023-05-08T23:11:09.648Z,4.33
2023-05-08T23:13:35.923Z,4.73
2023-05-08T23:16:02.305Z,3.97
2023-05-08T23:18:28.555Z,3.90
2023-05-08T23:20:54.794Z,3.83
2023-05-08T23:23:21.057Z,3.77
2023-05-08T23:25:47.437Z,4.30
2023-05-08T23:28:13.759Z,4.03
2023-05-08T23:30:39.988Z,4.27
2023-05-08T23:33:06.265Z,3.90
2023-05-08T23:35:32.538Z,4.13
2023-05-08T23:37:58.844Z,4.43
2023-05-08T23:40:25.088Z,3.80
2023-05-08T23:42:52.049Z,4.30
2023-05-08T23:45:18.360Z,4.43
2023-05-08T23:47:44.669Z,4.27
2023-05-08T23:50:11.362Z,4.27
2023-05-08T23:52:37.634Z,4.20
2023-05-08T23:55:04.048Z,4.07
2023-05-08T23:57:30.511Z,4.23
2023-05-08T23:59:56.791Z,4.30
